createdAt,value
2023-04-26T00:00:54.821Z,4.7860
2023-04-26T00:01:56.454Z,4.5000
2023-04-26T00:02:58.200Z,5.5811
2023-04-26T00:04:00.029Z,4.9896
2023-04-26T00:05:01.541Z,5.1691
2023-04-26T00:06:03.064Z,5.2429
2023-04-26T00:07:04.686Z,5.3185
2023-04-26T00:08:06.325Z,5.1657
2023-04-26T00:09:08.065Z,4.9337
2023-04-26T00:10:09.642Z,5.4896
2023-04-26T00:11:11.285Z,5.3891
2023-04-26T00:12:12.930Z,5.6234
2023-04-26T00:13:14.566Z,5.5442
2023-04-26T00:14:16.254Z,5.1436
2023-04-26T00:15:17.863Z,5.4244
2023-04-26T00:16:19.578Z,6.1263
2023-04-26T00:17:21.148Z,5.8208
2023-04-26T00:18:22.824Z,5.6476
2023-04-26T00:19:24.524Z,5.6610
2023-04-26T00:20:26.127Z,5.9893
2023-04-26T00:21:27.745Z,5.9119
2023-04-26T00:22:29.444Z,5.7164
2023-04-26T00:23:31.050Z,5.5399
2023-04-26T00:24:32.704Z,5.7509
2023-04-26T00:25:34.334Z,5.8073
2023-04-26T00:26:36.058Z,5.6587
2023-04-26T00:27:37.606Z,5.8575
2023-04-26T00:28:39.257Z,5.4766
2023-04-26T00:29:40.941Z,5.3530
2023-04-26T00:30:42.529Z,5.1521
2023-04-26T00:31:44.086Z,5.1951
2023-04-26T00:32:45.795Z,5.5881
2023-04-26T00:33:47.363Z,5.9802
2023-04-26T00:34:49.025Z,5.7555
2023-04-26T00:35:50.645Z,6.0166
2023-04-26T00:36:52.324Z,5.9686
2023-04-26T00:37:53.925Z,6.0297
2023-04-26T00:38:55.824Z,6.2262
2023-04-26T00:39:57.391Z,5.9134
2023-04-26T00:40:58.878Z,5.5234
2023-04-26T00:42:00.527Z,5.6458
2023-04-26T00:43:02.165Z,5.8383
2023-04-26T00:44:03.828Z,5.9024
2023-04-26T00:45:05.486Z,5.2952
2023-04-26T00:46:07.189Z,5.7781
2023-04-26T00:47:08.760Z,6.0998
2023-04-26T00:48:10.605Z,5.6887
2023-04-26T00:49:12.075Z,6.1378
2023-04-26T00:50:13.747Z,5.7688
2023-04-26T00:51:15.346Z,5.7610
2023-04-26T00:52:17.040Z,5.6859
2023-04-26T00:53:18.630Z,6.7429
2023-04-26T00:54:20.270Z,6.0659
2023-04-26T00:55:21.969Z,5.6391
2023-04-26T00:56:23.594Z,5.5635
2023-04-26T00:57:25.288Z,6.1460
2023-04-26T00:58:26.885Z,5.3570
2023-04-26T00:59:28.566Z,5.2983
2023-04-26T01:00:30.185Z,5.2430
2023-04-26T01:01:31.827Z,5.7909
2023-04-26T01:02:33.572Z,5.6594
2023-04-26T01:03:35.221Z,5.9845
2023-04-26T01:04:36.771Z,5.3438
2023-04-26T01:05:38.404Z,5.2675
2023-04-26T01:06:40.006Z,5.3953
2023-04-26T01:07:41.687Z,5.6703
2023-04-26T01:08:43.328Z,5.5020
2023-04-26T01:09:44.968Z,6.3687
2023-04-26T01:10:46.645Z,6.2888
2023-04-26T01:11:48.285Z,6.1686
2023-04-26T01:12:49.910Z,6.2623
2023-04-26T01:13:51.564Z,5.8951
2023-04-26T01:14:53.190Z,5.5993
2023-04-26T01:15:54.878Z,5.9094
2023-04-26T01:16:56.536Z,5.6656
2023-04-26T01:17:58.182Z,5.8128
2023-04-26T01:18:59.764Z,5.7014
2023-04-26T01:20:01.487Z,5.9067
2023-04-26T01:21:03.627Z,5.9671
2023-04-26T01:22:04.748Z,5.6726
2023-04-26T01:23:06.346Z,5.3096
2023-04-26T01:24:08.022Z,5.5409
2023-04-26T01:25:09.648Z,5.3506
2023-04-26T01:26:11.338Z,5.2162
2023-04-26T01:27:12.948Z,5.6869
2023-04-26T01:28:14.594Z,5.7481
2023-04-26T01:29:16.242Z,5.0880
2023-04-26T01:30:17.899Z,5.1629
2023-04-26T01:31:19.592Z,5.3685
2023-04-26T01:32:21.157Z,5.0660
2023-04-26T01:33:22.826Z,5.1867
2023-04-26T01:34:24.444Z,5.1211
2023-04-26T01:35:26.105Z,5.1671
2023-04-26T01:36:27.780Z,5.4400
2023-04-26T01:37:29.374Z,5.1994
2023-04-26T01:38:31.026Z,5.0616
2023-04-26T01:39:32.708Z,5.6622
2023-04-26T01:40:34.366Z,5.3602
2023-04-26T01:41:36.060Z,5.2431
2023-04-26T01:42:37.662Z,5.0836
2023-04-26T01:43:39.299Z,5.4451
2023-04-26T01:44:40.967Z,5.4612
2023-04-26T01:45:42.596Z,5.2177
2023-04-26T01:46:44.337Z,5.5327
2023-04-26T01:47:45.931Z,5.2910
2023-04-26T01:48:47.567Z,4.9657
2023-04-26T01:49:49.201Z,5.0168
2023-04-26T01:50:50.825Z,5.4600
2023-04-26T01:51:52.481Z,4.8517
2023-04-26T01:52:54.100Z,4.9418
2023-04-26T01:53:55.741Z,5.0305
2023-04-26T01:54:57.399Z,5.2161
2023-04-26T01:55:59.033Z,4.8001
2023-04-26T01:57:00.780Z,5.3500
2023-04-26T01:58:02.416Z,4.9860
2023-04-26T01:59:03.997Z,5.1749
2023-04-26T02:00:05.601Z,5.1340
2023-04-26T02:01:07.241Z,5.4341
2023-04-26T02:02:09.037Z,5.4054
2023-04-26T02:03:10.757Z,4.8686
2023-04-26T02:04:12.201Z,4.9869
2023-04-26T02:05:13.890Z,5.3622
2023-04-26T02:06:15.518Z,5.5599
2023-04-26T02:07:17.157Z,5.2559
2023-04-26T02:08:18.767Z,4.9963
2023-04-26T02:09:20.401Z,5.4354
2023-04-26T02:10:22.044Z,5.7954
2023-04-26T02:11:23.682Z,5.6057
2023-04-26T02:12:25.404Z,5.7842
2023-04-26T02:13:27.013Z,5.2861
2023-04-26T02:14:28.631Z,5.9228
2023-04-26T02:15:30.260Z,5.8843
2023-04-26T02:16:32.053Z,5.6162
2023-04-26T02:17:33.590Z,5.8653
2023-04-26T02:18:35.179Z,5.2029
2023-04-26T02:19:36.847Z,5.8393
2023-04-26T02:20:38.488Z,5.5067
2023-04-26T02:21:40.120Z,5.6630
2023-04-26T02:22:41.834Z,5.8444
2023-04-26T02:23:43.455Z,6.0334
2023-04-26T02:24:45.014Z,6.1574
2023-04-26T02:25:46.691Z,6.1598
2023-04-26T02:26:48.286Z,5.4869
2023-04-26T02:27:50.004Z,5.6757
2023-04-26T02:28:51.862Z,5.7832
2023-04-26T02:29:53.243Z,5.6734
2023-04-26T02:30:55.046Z,5.8856
2023-04-26T02:31:56.578Z,6.0697
2023-04-26T02:32:58.267Z,6.3996
2023-04-26T02:33:59.833Z,6.7028
2023-04-26T02:35:01.480Z,6.5518
2023-04-26T02:36:03.120Z,6.7747
2023-04-26T02:37:04.746Z,6.6027
2023-04-26T02:38:06.449Z,6.5795
2023-04-26T02:39:08.086Z,6.4732
2023-04-26T02:40:09.685Z,7.5970
2023-04-26T02:41:11.306Z,7.0949
2023-04-26T02:42:12.990Z,7.1347
2023-04-26T02:43:14.626Z,7.5521
2023-04-26T02:44:16.266Z,7.7449
2023-04-26T02:45:18.006Z,7.3762
2023-04-26T02:46:19.585Z,7.6472
2023-04-26T02:47:21.196Z,7.9771
2023-04-26T02:48:22.789Z,8.3669
2023-04-26T02:49:24.454Z,8.7542
2023-04-26T02:50:26.132Z,9.1314
2023-04-26T02:51:27.782Z,9.9271
2023-04-26T02:52:29.473Z,10.3047
2023-04-26T02:53:31.134Z,10.1176
2023-04-26T02:54:32.754Z,10.6641
2023-04-26T02:55:34.375Z,10.4501
2023-04-26T02:56:36.039Z,10.3943
2023-04-26T02:57:37.675Z,10.0563
2023-04-26T02:58:39.353Z,13.2830
2023-04-26T02:59:40.957Z,19.8807
2023-04-26T03:00:42.668Z,19.0704
2023-04-26T03:01:44.461Z,13.0470
2023-04-26T03:02:46.014Z,12.4026
2023-04-26T03:03:47.699Z,12.0543
2023-04-26T03:04:49.212Z,12.5537
2023-04-26T03:05:50.841Z,13.5880
2023-04-26T03:06:52.470Z,13.3565
2023-04-26T03:07:54.134Z,15.0983
2023-04-26T03:08:55.840Z,14.6391
2023-04-26T03:09:57.434Z,15.4526
2023-04-26T03:10:59.078Z,13.9408
2023-04-26T03:12:00.713Z,12.2848
2023-04-26T03:13:02.383Z,13.1806
2023-04-26T03:14:04.049Z,12.4105
2023-04-26T03:15:05.637Z,11.8016
2023-04-26T03:16:07.311Z,12.0236
2023-04-26T03:17:08.931Z,12.0762
2023-04-26T03:18:10.619Z,12.3946
2023-04-26T03:19:12.268Z,12.2161
2023-04-26T03:20:13.846Z,12.8529
2023-04-26T03:21:15.525Z,12.4414
2023-04-26T03:22:17.183Z,12.4175
2023-04-26T03:23:18.820Z,13.0667
2023-04-26T03:24:20.552Z,13.0643
2023-04-26T03:25:22.110Z,12.9717
2023-04-26T03:26:23.764Z,12.1853
2023-04-26T03:27:25.384Z,11.9951
2023-04-26T03:28:27.068Z,12.4750
2023-04-26T03:29:28.724Z,13.1968
2023-04-26T03:30:30.327Z,12.6112
2023-04-26T03:31:31.997Z,12.3654
2023-04-26T03:32:33.638Z,12.3689
2023-04-26T03:33:35.264Z,12.1076
2023-04-26T03:34:36.911Z,11.1818
2023-04-26T03:35:38.574Z,12.3311
2023-04-26T03:36:40.186Z,12.1192
2023-04-26T03:37:41.853Z,12.2605
2023-04-26T03:38:43.531Z,11.4009
2023-04-26T03:39:45.184Z,11.1619
2023-04-26T03:40:46.765Z,11.3677
2023-04-26T03:41:48.428Z,12.3545
2023-04-26T03:42:50.053Z,12.4704
2023-04-26T03:43:51.709Z,11.2246
2023-04-26T03:44:53.407Z,12.4214
2023-04-26T03:45:55.026Z,11.6751
2023-04-26T03:46:56.644Z,13.1198
2023-04-26T03:47:58.401Z,12.1759
2023-04-26T03:48:59.934Z,12.5558
2023-04-26T03:50:01.589Z,11.9340
2023-04-26T03:51:03.231Z,12.3486
2023-04-26T03:52:04.848Z,11.9839
2023-04-26T03:53:06.509Z,11.7568
2023-04-26T03:54:08.195Z,11.4821
2023-04-26T03:55:09.808Z,11.8838
2023-04-26T03:56:11.444Z,11.1769
2023-04-26T03:57:13.093Z,12.0159
2023-04-26T03:58:14.746Z,11.7990
2023-04-26T03:59:16.411Z,11.0736
2023-04-26T04:00:18.081Z,11.0824
2023-04-26T04:01:19.665Z,10.6855
2023-04-26T04:02:21.382Z,11.9377
2023-04-26T04:03:23.095Z,13.8036
2023-04-26T04:04:24.753Z,14.3347
2023-04-26T04:05:26.341Z,16.1047
2023-04-26T04:06:27.893Z,19.7900
2023-04-26T04:07:29.553Z,23.3386
2023-04-26T04:08:31.163Z,24.9810
2023-04-26T04:09:32.908Z,19.6012
2023-04-26T04:10:34.473Z,15.2189
2023-04-26T04:11:36.113Z,13.1467
2023-04-26T04:12:37.790Z,17.0103
2023-04-26T04:13:39.377Z,25.6807
2023-04-26T04:14:41.043Z,22.8696
2023-04-26T04:15:42.717Z,17.1732
2023-04-26T04:16:44.327Z,16.1490
2023-04-26T04:17:45.938Z,13.8314
2023-04-26T04:18:47.634Z,16.8295
2023-04-26T04:19:49.211Z,18.7158
2023-04-26T04:20:50.912Z,18.6709
2023-04-26T04:21:52.515Z,13.9910
2023-04-26T04:22:54.182Z,13.1633
2023-04-26T04:23:55.813Z,12.1862
2023-04-26T04:24:57.490Z,13.0208
2023-04-26T04:25:59.100Z,13.9282
2023-04-26T04:27:00.735Z,14.2432
2023-04-26T04:28:02.392Z,13.2616
2023-04-26T04:29:04.024Z,12.8567
2023-04-26T04:30:05.718Z,13.6324
2023-04-26T04:31:07.410Z,13.5079
2023-04-26T04:32:09.010Z,12.9709
2023-04-26T04:33:10.789Z,12.3434
2023-04-26T04:34:12.262Z,12.1570
2023-04-26T04:35:13.947Z,12.4147
2023-04-26T04:36:15.567Z,12.8531
2023-04-26T04:37:17.220Z,13.0903
2023-04-26T04:38:18.860Z,12.6553
2023-04-26T04:39:20.482Z,12.6415
2023-04-26T04:40:22.176Z,12.5302
2023-04-26T04:41:23.795Z,12.2858
2023-04-26T04:42:25.451Z,13.0652
2023-04-26T04:43:27.069Z,13.1088
2023-04-26T04:44:28.725Z,12.2530
2023-04-26T04:45:30.386Z,13.1723
2023-04-26T04:46:32.081Z,13.2867
2023-04-26T04:47:33.638Z,12.9188
2023-04-26T04:48:35.302Z,12.6864
2023-04-26T04:49:36.923Z,12.6434
2023-04-26T04:50:38.629Z,12.8332
2023-04-26T04:51:40.219Z,13.3526
2023-04-26T04:52:41.862Z,13.5864
2023-04-26T04:53:43.540Z,13.5817
2023-04-26T04:54:45.162Z,13.3443
2023-04-26T04:55:46.864Z,13.4591
2023-04-26T04:56:48.519Z,14.6675
2023-04-26T04:57:50.112Z,14.6304
2023-04-26T04:58:51.995Z,14.0961
2023-04-26T04:59:53.430Z,12.8901
2023-04-26T05:00:55.085Z,12.6640
2023-04-26T05:01:56.753Z,15.2302
2023-04-26T05:02:58.440Z,15.4610
2023-04-26T05:04:00.100Z,14.1543
2023-04-26T05:05:01.670Z,13.2927
2023-04-26T05:06:03.317Z,14.3655
2023-04-26T05:07:04.906Z,11.5036
2023-04-26T05:08:06.579Z,11.3278
2023-04-26T05:09:08.223Z,11.3061
2023-04-26T05:10:09.868Z,11.1655
2023-04-26T05:11:11.554Z,11.2303
2023-04-26T05:12:13.173Z,10.0259
2023-04-26T05:13:14.812Z,10.9904
2023-04-26T05:14:16.446Z,10.8108
2023-04-26T05:15:18.099Z,10.8159
2023-04-26T05:16:19.922Z,11.5224
2023-04-26T05:17:21.369Z,12.0118
2023-04-26T05:18:23.047Z,11.5968
2023-04-26T05:19:24.667Z,12.7586
2023-04-26T05:20:26.505Z,13.1828
2023-04-26T05:21:28.037Z,11.8372
2023-04-26T05:22:29.617Z,13.0832
2023-04-26T05:23:31.240Z,12.7594
2023-04-26T05:24:32.903Z,13.5797
2023-04-26T05:25:34.540Z,13.2982
2023-04-26T05:26:36.239Z,12.9509
2023-04-26T05:27:37.864Z,13.6495
2023-04-26T05:28:39.456Z,14.1678
2023-04-26T05:29:41.147Z,12.9919
2023-04-26T05:30:42.775Z,14.3712
2023-04-26T05:31:44.484Z,12.9310
2023-04-26T05:32:46.184Z,13.2135
2023-04-26T05:33:47.835Z,13.6804
2023-04-26T05:34:49.449Z,12.5568
2023-04-26T05:35:51.098Z,13.1308
2023-04-26T05:36:52.827Z,12.5694
2023-04-26T05:37:54.404Z,13.3341
2023-04-26T05:38:56.058Z,13.4469
2023-04-26T05:39:57.828Z,13.8845
2023-04-26T05:40:59.374Z,14.0191
2023-04-26T05:42:01.047Z,12.8847
2023-04-26T05:43:02.625Z,14.6861
2023-04-26T05:44:04.265Z,13.4862
2023-04-26T05:45:05.942Z,12.9885
2023-04-26T05:46:07.570Z,13.6027
2023-04-26T05:47:09.173Z,12.5800
2023-04-26T05:48:10.818Z,12.6219
2023-04-26T05:49:12.467Z,12.1833
2023-04-26T05:50:14.100Z,13.1355
2023-04-26T05:51:15.780Z,12.7114
2023-04-26T05:52:17.435Z,12.8834
2023-04-26T05:53:19.041Z,13.4361
2023-04-26T05:54:20.700Z,12.2943
2023-04-26T05:55:22.353Z,12.0428
2023-04-26T05:56:23.999Z,13.3366
2023-04-26T05:57:25.800Z,13.1765
2023-04-26T05:58:27.283Z,12.6021
2023-04-26T05:59:28.915Z,13.2939
2023-04-26T06:00:30.571Z,14.5707
2023-04-26T06:01:32.425Z,12.5650
2023-04-26T06:02:34.007Z,12.1485
2023-04-26T06:03:35.678Z,12.2272
2023-04-26T06:04:37.438Z,12.4941
2023-04-26T06:05:38.856Z,12.0561
2023-04-26T06:06:40.481Z,13.1139
2023-04-26T06:07:42.143Z,13.9130
2023-04-26T06:08:43.832Z,13.6930
2023-04-26T06:09:45.404Z,13.3933
2023-04-26T06:10:47.087Z,16.1710
2023-04-26T06:11:48.722Z,14.9812
2023-04-26T06:12:50.404Z,12.8282
2023-04-26T06:13:52.200Z,12.9563
2023-04-26T06:14:53.619Z,12.8611
2023-04-26T06:15:55.282Z,13.1305
2023-04-26T06:16:56.982Z,13.7531
2023-04-26T06:17:58.642Z,14.1866
2023-04-26T06:19:00.253Z,12.8073
2023-04-26T06:20:01.878Z,12.2665
2023-04-26T06:21:03.568Z,12.5505
2023-04-26T06:22:05.182Z,13.0637
2023-04-26T06:23:06.909Z,14.1861
2023-04-26T06:24:08.482Z,14.1190
2023-04-26T06:25:10.119Z,12.6780
2023-04-26T06:26:11.763Z,11.7805
2023-04-26T06:27:13.396Z,12.9894
2023-04-26T06:28:15.090Z,12.5110
2023-04-26T06:29:16.703Z,13.2628
2023-04-26T06:30:18.364Z,13.8971
2023-04-26T06:31:20.090Z,13.3865
2023-04-26T06:32:21.701Z,13.1881
2023-04-26T06:33:23.333Z,12.7228
2023-04-26T06:34:24.901Z,12.7786
2023-04-26T06:35:26.556Z,12.7186
2023-04-26T06:36:28.176Z,12.8376
2023-04-26T06:37:29.853Z,13.0039
2023-04-26T06:38:31.520Z,12.9628
2023-04-26T06:39:33.160Z,12.9259
2023-04-26T06:40:34.789Z,15.0319
2023-04-26T06:41:36.422Z,13.6420
2023-04-26T06:42:38.058Z,13.4890
2023-04-26T06:43:39.761Z,13.5145
2023-04-26T06:44:41.368Z,14.5489
2023-04-26T06:45:43.711Z,15.0436
2023-04-26T06:46:44.771Z,15.4230
2023-04-26T06:47:46.354Z,14.9535
2023-04-26T06:48:47.994Z,15.5525
2023-04-26T06:49:49.619Z,14.6928
2023-04-26T06:50:51.208Z,15.0173
2023-04-26T06:51:52.905Z,15.6589
2023-04-26T06:52:54.563Z,15.1960
2023-04-26T06:53:56.207Z,15.2731
2023-04-26T06:54:57.960Z,15.3867
2023-04-26T06:55:59.560Z,14.9923
2023-04-26T06:57:01.602Z,15.0752
2023-04-26T06:58:02.837Z,14.6805
2023-04-26T06:59:04.570Z,15.5522
2023-04-26T07:00:06.125Z,16.7417
2023-04-26T07:01:07.798Z,16.7812
2023-04-26T07:02:09.511Z,17.6748
2023-04-26T07:03:11.221Z,18.3557
2023-04-26T07:04:12.926Z,18.0052
2023-04-26T07:05:14.384Z,18.9597
2023-04-26T07:06:16.010Z,17.5875
2023-04-26T07:07:17.625Z,17.2700
2023-04-26T07:08:19.285Z,17.2739
2023-04-26T07:09:20.987Z,16.8792
2023-04-26T07:10:22.592Z,16.9174
2023-04-26T07:11:26.271Z,16.5953
2023-04-26T07:12:25.875Z,16.9717
2023-04-26T07:13:27.582Z,16.6514
2023-04-26T07:14:29.195Z,16.5518
2023-04-26T07:15:30.837Z,17.1699
2023-04-26T07:16:32.688Z,17.7110
2023-04-26T07:17:34.471Z,18.9331
2023-04-26T07:18:35.799Z,17.6380
2023-04-26T07:19:37.786Z,17.2171
2023-04-26T07:20:39.052Z,17.4835
2023-04-26T07:21:40.691Z,17.5190
2023-04-26T07:22:42.377Z,18.2159
2023-04-26T07:23:44.239Z,18.2312
2023-04-26T07:24:45.699Z,16.7599
2023-04-26T07:25:47.299Z,16.5550
2023-04-26T07:26:48.941Z,15.8829
2023-04-26T07:27:50.578Z,15.5417
2023-04-26T07:28:52.228Z,16.1880
2023-04-26T07:29:53.878Z,15.9440
2023-04-26T07:30:55.541Z,16.2945
2023-04-26T07:31:57.246Z,15.3992
2023-04-26T07:32:59.052Z,15.5938
2023-04-26T07:34:00.547Z,15.3466
2023-04-26T07:35:02.138Z,16.5369
2023-04-26T07:36:03.761Z,16.1194
2023-04-26T07:37:05.404Z,15.9179
2023-04-26T07:38:07.017Z,16.6311
2023-04-26T07:39:08.680Z,16.2711
2023-04-26T07:40:10.505Z,15.4200
2023-04-26T07:41:12.089Z,16.7386
2023-04-26T07:42:14.125Z,16.6826
2023-04-26T07:43:15.390Z,17.0756
2023-04-26T07:44:17.008Z,16.2393
2023-04-26T07:45:18.724Z,16.0246
2023-04-26T07:46:20.403Z,16.3420
2023-04-26T07:47:21.973Z,16.2117
2023-04-26T07:48:23.634Z,16.0761
2023-04-26T07:49:25.283Z,16.1370
2023-04-26T07:50:26.977Z,16.0214
2023-04-26T07:51:28.540Z,17.0193
2023-04-26T07:52:30.206Z,16.4247
2023-04-26T07:53:31.865Z,15.6666
2023-04-26T07:54:33.499Z,15.7734
2023-04-26T07:55:35.192Z,16.3112
2023-04-26T07:56:36.785Z,17.0013
2023-04-26T07:57:38.409Z,15.4558
2023-04-26T07:58:40.145Z,16.0912
2023-04-26T07:59:41.804Z,15.4696
2023-04-26T08:00:43.337Z,17.1310
2023-04-26T08:01:44.955Z,17.5898
2023-04-26T08:02:46.784Z,17.1353
2023-04-26T08:03:48.427Z,15.6238
2023-04-26T08:04:50.025Z,14.1697
2023-04-26T08:05:51.783Z,14.2309
2023-04-26T08:06:53.342Z,14.8520
2023-04-26T08:07:54.851Z,14.7756
2023-04-26T08:08:56.476Z,15.0560
2023-04-26T08:09:58.102Z,16.5321
2023-04-26T08:10:59.820Z,16.2939
2023-04-26T08:12:01.454Z,15.7308
2023-04-26T08:13:03.068Z,14.3863
2023-04-26T08:14:04.702Z,15.1071
2023-04-26T08:15:06.356Z,14.9856
2023-04-26T08:16:08.038Z,14.6761
2023-04-26T08:17:09.674Z,14.3379
2023-04-26T08:18:11.363Z,14.8709
2023-04-26T08:19:12.900Z,15.0572
2023-04-26T08:20:14.586Z,15.7206
2023-04-26T08:21:16.202Z,14.8816
2023-04-26T08:22:17.878Z,15.3531
2023-04-26T08:23:19.534Z,14.5605
2023-04-26T08:24:21.177Z,15.2282
2023-04-26T08:25:22.764Z,17.0793
2023-04-26T08:26:24.467Z,17.9510
2023-04-26T08:27:26.065Z,16.9367
2023-04-26T08:28:27.735Z,18.5033
2023-04-26T08:29:29.356Z,17.2778
2023-04-26T08:30:30.993Z,16.1077
2023-04-26T08:31:32.712Z,15.5542
2023-04-26T08:32:34.298Z,15.2708
2023-04-26T08:33:35.945Z,15.7098
2023-04-26T08:34:37.775Z,16.4800
2023-04-26T08:35:39.200Z,15.9469
2023-04-26T08:36:40.880Z,14.7942
2023-04-26T08:37:42.528Z,15.7489
2023-04-26T08:38:44.143Z,15.6642
2023-04-26T08:39:45.785Z,15.4278
2023-04-26T08:40:47.421Z,14.6798
2023-04-26T08:41:49.101Z,15.1208
2023-04-26T08:42:50.703Z,15.7298
2023-04-26T08:43:52.563Z,15.7224
2023-04-26T08:44:54.021Z,15.1546
2023-04-26T08:45:55.687Z,16.2427
2023-04-26T08:46:57.349Z,16.1361
2023-04-26T08:47:58.991Z,15.9559
2023-04-26T08:49:00.587Z,16.9661
2023-04-26T08:50:02.235Z,16.6653
2023-04-26T08:51:03.889Z,16.8882
2023-04-26T08:52:05.525Z,34.5735
2023-04-26T08:53:07.178Z,29.0802
2023-04-26T08:54:08.777Z,29.1155
2023-04-26T08:55:10.407Z,24.2517
2023-04-26T08:56:12.054Z,18.0923
2023-04-26T08:57:13.751Z,16.5430
2023-04-26T08:58:15.359Z,20.1787
2023-04-26T08:59:17.017Z,20.1779
2023-04-26T09:00:18.632Z,17.3235
2023-04-26T09:01:20.315Z,16.0330
2023-04-26T09:02:22.025Z,15.5770
2023-04-26T09:03:23.680Z,16.8222
2023-04-26T09:04:25.388Z,15.7060
2023-04-26T09:05:26.823Z,15.1216
2023-04-26T09:06:28.501Z,15.5843
2023-04-26T09:07:30.171Z,14.9779
2023-04-26T09:08:31.814Z,15.3923
2023-04-26T09:09:33.452Z,16.2105
2023-04-26T09:10:35.062Z,16.1577
2023-04-26T09:11:36.658Z,16.4481
2023-04-26T09:12:38.603Z,16.1096
2023-04-26T09:13:39.978Z,15.9397
2023-04-26T09:14:41.642Z,14.8336
2023-04-26T09:15:43.343Z,15.5299
2023-04-26T09:16:45.048Z,15.0797
2023-04-26T09:17:46.635Z,14.4044
2023-04-26T09:18:48.197Z,14.3245
2023-04-26T09:19:49.818Z,15.2766
2023-04-26T09:20:51.688Z,15.0244
2023-04-26T09:21:53.102Z,13.4022
2023-04-26T09:22:54.790Z,14.0075
2023-04-26T09:23:56.383Z,14.0255
2023-04-26T09:24:58.036Z,13.9597
2023-04-26T09:25:59.682Z,13.9956
2023-04-26T09:27:01.315Z,13.7136
2023-04-26T09:28:02.974Z,13.9037
2023-04-26T09:29:04.619Z,14.4720
2023-04-26T09:30:06.208Z,15.0642
2023-04-26T09:31:07.905Z,15.4591
2023-04-26T09:32:09.517Z,15.5325
2023-04-26T09:33:11.280Z,14.3423
2023-04-26T09:34:12.790Z,14.5443
2023-04-26T09:35:14.419Z,13.6170
2023-04-26T09:36:16.097Z,13.9074
2023-04-26T09:37:17.733Z,13.4560
2023-04-26T09:38:19.369Z,13.3907
2023-04-26T09:39:20.981Z,13.1639
2023-04-26T09:40:22.591Z,12.5772
2023-04-26T09:41:24.251Z,13.1579
2023-04-26T09:42:25.912Z,12.4792
2023-04-26T09:43:27.564Z,12.1850
2023-04-26T09:44:29.179Z,13.3927
2023-04-26T09:45:30.815Z,13.8846
2023-04-26T09:46:32.513Z,13.4235
2023-04-26T09:47:34.176Z,13.7374
2023-04-26T09:48:35.745Z,12.3640
2023-04-26T09:49:37.395Z,14.0703
2023-04-26T09:50:39.042Z,14.5475
2023-04-26T09:51:40.715Z,13.1600
2023-04-26T09:52:42.355Z,13.5114
2023-04-26T09:53:43.957Z,12.1895
2023-04-26T09:54:45.604Z,13.8654
2023-04-26T09:55:47.253Z,13.4848
2023-04-26T09:56:48.868Z,12.2455
2023-04-26T09:57:50.567Z,12.1435
2023-04-26T09:58:52.502Z,12.0569
2023-04-26T09:59:55.630Z,11.8622
2023-04-26T10:00:55.531Z,11.8298
2023-04-26T10:01:57.082Z,11.3336
2023-04-26T10:02:58.797Z,11.6267
2023-04-26T10:04:00.504Z,11.1412
2023-04-26T10:05:02.195Z,11.9725
2023-04-26T10:06:03.661Z,11.5272
2023-04-26T10:07:05.321Z,11.6598
2023-04-26T10:08:06.959Z,10.9507
2023-04-26T10:09:08.581Z,11.0387
2023-04-26T10:10:10.208Z,10.9619
2023-04-26T10:11:11.906Z,10.9793
2023-04-26T10:12:13.505Z,11.9410
2023-04-26T10:13:15.181Z,11.2495
2023-04-26T10:14:16.780Z,10.7177
2023-04-26T10:15:18.424Z,11.1153
2023-04-26T10:16:20.126Z,10.6911
2023-04-26T10:17:21.870Z,10.3015
2023-04-26T10:18:23.414Z,11.2555
2023-04-26T10:19:24.998Z,10.2654
2023-04-26T10:20:26.683Z,10.8039
2023-04-26T10:21:28.289Z,10.4677
2023-04-26T10:22:29.896Z,10.2475
2023-04-26T10:23:31.586Z,9.3969
2023-04-26T10:24:33.214Z,9.9631
2023-04-26T10:25:34.844Z,9.8865
2023-04-26T10:26:36.526Z,10.0177
2023-04-26T10:27:38.114Z,10.2833
2023-04-26T10:28:39.827Z,9.7406
2023-04-26T10:29:41.421Z,9.8997
2023-04-26T10:30:43.083Z,10.1074
2023-04-26T10:31:44.728Z,9.8546
2023-04-26T10:32:46.406Z,10.6871
2023-04-26T10:33:47.978Z,9.9521
2023-04-26T10:34:49.617Z,9.4391
2023-04-26T10:35:51.253Z,8.8976
2023-04-26T10:36:52.897Z,8.7885
2023-04-26T10:37:54.516Z,8.9157
2023-04-26T10:38:56.199Z,8.3699
2023-04-26T10:39:57.836Z,8.1241
2023-04-26T10:40:59.472Z,7.5458
2023-04-26T10:42:01.129Z,7.1485
2023-04-26T10:43:02.734Z,7.5884
2023-04-26T10:44:04.378Z,7.3761
2023-04-26T10:45:06.034Z,8.0654
2023-04-26T10:46:07.707Z,8.2993
2023-04-26T10:47:09.334Z,8.0035
2023-04-26T10:48:10.972Z,8.0127
2023-04-26T10:49:12.647Z,7.7582
2023-04-26T10:50:14.207Z,7.6302
2023-04-26T10:51:15.907Z,7.4368
2023-04-26T10:52:17.530Z,7.3795
2023-04-26T10:53:19.165Z,7.6558
2023-04-26T10:54:20.843Z,7.6955
2023-04-26T10:55:24.335Z,7.0442
2023-04-26T10:56:24.143Z,7.2148
2023-04-26T10:57:25.722Z,6.8139
2023-04-26T10:58:27.443Z,6.5262
2023-04-26T10:59:43.274Z,6.5548
2023-04-26T11:00:31.985Z,5.8637
2023-04-26T11:01:32.390Z,5.8694
2023-04-26T11:02:34.133Z,5.5308
2023-04-26T11:03:36.095Z,6.5345
2023-04-26T11:04:37.360Z,5.8564
2023-04-26T11:05:38.965Z,5.8502
2023-04-26T11:06:40.563Z,5.0150
2023-04-26T11:07:42.199Z,4.7508
2023-04-26T11:08:43.870Z,5.0562
2023-04-26T11:09:45.505Z,5.5749
2023-04-26T11:10:47.103Z,5.9838
2023-04-26T11:11:48.740Z,5.8607
2023-04-26T11:12:50.422Z,5.6682
2023-04-26T11:13:52.055Z,5.3036
2023-04-26T11:14:53.740Z,5.0879
2023-04-26T11:15:55.336Z,5.1834
2023-04-26T11:16:57.007Z,5.1113
2023-04-26T11:17:58.666Z,5.3133
2023-04-26T11:19:00.464Z,5.3829
2023-04-26T11:20:01.934Z,5.2342
2023-04-26T11:21:03.580Z,5.3535
2023-04-26T11:22:05.150Z,5.1785
2023-04-26T11:23:07.024Z,5.2063
2023-04-26T11:24:08.639Z,5.2374
2023-04-26T11:25:10.098Z,5.3309
2023-04-26T11:26:11.741Z,5.2257
2023-04-26T11:27:13.395Z,5.2097
2023-04-26T11:28:15.010Z,5.1461
2023-04-26T11:29:16.668Z,5.3552
2023-04-26T11:30:18.307Z,4.9692
2023-04-26T11:31:19.977Z,4.9143
2023-04-26T11:32:21.538Z,4.9200
2023-04-26T11:33:23.223Z,5.0595
2023-04-26T11:34:24.854Z,5.3636
2023-04-26T11:35:26.489Z,5.0410
2023-04-26T11:36:28.102Z,4.8352
2023-04-26T11:37:29.772Z,5.5173
2023-04-26T11:38:31.416Z,5.0691
2023-04-26T11:39:33.127Z,5.4704
2023-04-26T11:40:34.695Z,5.3923
2023-04-26T11:41:36.347Z,5.0481
2023-04-26T11:42:38.036Z,5.0411
2023-04-26T11:43:39.783Z,5.0274
2023-04-26T11:44:41.459Z,5.3751
2023-04-26T11:45:42.920Z,5.5894
2023-04-26T11:46:44.604Z,4.9454
2023-04-26T11:47:46.287Z,5.2494
2023-04-26T11:48:47.895Z,5.2629
2023-04-26T11:49:49.507Z,4.9416
2023-04-26T11:50:51.179Z,5.1828
2023-04-26T11:51:52.817Z,5.2726
2023-04-26T11:52:54.446Z,4.6611
2023-04-26T11:53:56.101Z,4.9671
2023-04-26T11:54:57.777Z,5.1039
2023-04-26T11:55:59.402Z,4.6355
2023-04-26T11:57:01.022Z,4.7586
2023-04-26T11:58:02.694Z,4.2958
2023-04-26T11:59:04.285Z,4.8365
2023-04-26T12:00:05.969Z,4.6506
2023-04-26T12:01:07.573Z,4.8630
2023-04-26T12:02:09.286Z,4.7124
2023-04-26T12:03:11.009Z,4.4217
2023-04-26T12:04:12.695Z,4.5311
2023-04-26T12:05:14.316Z,4.4735
2023-04-26T12:06:15.811Z,4.2441
2023-04-26T12:07:17.424Z,4.5858
2023-04-26T12:08:19.085Z,5.2067
2023-04-26T12:09:20.765Z,5.1743
2023-04-26T12:10:22.393Z,4.8416
2023-04-26T12:11:24.028Z,4.5637
2023-04-26T12:12:25.671Z,4.4293
2023-04-26T12:13:27.340Z,4.6005
2023-04-26T12:14:28.930Z,4.5683
2023-04-26T12:15:30.630Z,5.1468
2023-04-26T12:16:32.257Z,4.5306
2023-04-26T12:17:33.944Z,4.4491
2023-04-26T12:18:35.523Z,4.8269
2023-04-26T12:19:37.186Z,5.1431
2023-04-26T12:20:38.843Z,5.0826
2023-04-26T12:21:40.450Z,4.8103
2023-04-26T12:22:42.114Z,4.5603
2023-04-26T12:23:43.813Z,4.2163
2023-04-26T12:24:45.479Z,4.3881
2023-04-26T12:25:47.094Z,4.2735
2023-04-26T12:26:48.742Z,17.8393
2023-04-26T12:27:50.350Z,15.3985
2023-04-26T12:28:52.027Z,5.5143
2023-04-26T12:29:53.642Z,15.8840
2023-04-26T12:30:55.362Z,35.8724
2023-04-26T12:31:57.131Z,12.4952
2023-04-26T12:33:09.140Z,5.6855
2023-04-26T12:34:00.222Z,4.9970
2023-04-26T12:35:01.878Z,4.3529